createdAt,value
2022-08-27T00:01:57.889Z,90.20
2022-08-27T00:04:26.307Z,90.50
2022-08-27T00:06:54.891Z,90.20
2022-08-27T00:09:27.098Z,90.60
2022-08-27T00:11:57.539Z,90.30
2022-08-27T00:14:27.034Z,90.30
2022-08-27T00:16:56.070Z,90.30
2022-08-27T00:19:25.085Z,90.30
2022-08-27T00:21:53.333Z,90.40
2022-08-27T00:24:21.450Z,90.40
2022-08-27T00:26:50.458Z,90.30
2022-08-27T00:29:20.176Z,90.30
2022-08-27T00:31:51.980Z,90.40
2022-08-27T00:34:22.282Z,90.30
2022-08-27T00:36:50.588Z,90.40
2022-08-27T00:39:18.898Z,90.50
2022-08-27T00:41:47.066Z,90.40
2022-08-27T00:44:16.776Z,90.50
2022-08-27T00:46:50.489Z,90.40
2022-08-27T00:49:25.801Z,90.40
2022-08-27T00:52:08.047Z,90.40
2022-08-27T00:54:36.213Z,90.40
2022-08-27T00:57:05.686Z,90.50
2022-08-27T00:59:33.847Z,90.40
2022-08-27T01:02:21.859Z,90.40
2022-08-27T01:04:56.235Z,90.40
2022-08-27T01:07:28.637Z,90.40
2022-08-27T01:10:01.222Z,90.40
2022-08-27T01:12:32.716Z,90.30
2022-08-27T01:15:02.731Z,90.40
2022-08-27T01:17:32.917Z,90.30
2022-08-27T01:20:08.305Z,90.30
2022-08-27T01:22:47.893Z,90.40
2022-08-27T01:25:19.877Z,90.30
2022-08-27T01:27:48.548Z,90.30
2022-08-27T01:30:19.216Z,90.30
2022-08-27T01:32:49.076Z,90.30
2022-08-27T01:35:19.062Z,90.30
2022-08-27T01:37:49.534Z,90.40
2022-08-27T01:40:22.381Z,90.40
2022-08-27T01:42:52.963Z,90.40
2022-08-27T01:45:24.585Z,90.40
2022-08-27T01:47:53.266Z,90.40
2022-08-27T01:50:24.507Z,90.30
2022-08-27T01:52:54.433Z,90.40
2022-08-27T01:55:26.125Z,90.40
2022-08-27T01:57:54.961Z,90.40
2022-08-27T02:00:25.986Z,90.40
2022-08-27T02:02:54.330Z,90.40
2022-08-27T02:05:22.778Z,90.40
2022-08-27T02:07:51.450Z,90.50
2022-08-27T02:10:24.893Z,90.50
2022-08-27T02:12:53.970Z,90.50
2022-08-27T02:15:22.473Z,90.40
2022-08-27T02:17:51.313Z,90.40
2022-08-27T02:20:20.604Z,90.50
2022-08-27T02:22:49.738Z,90.40
2022-08-27T02:25:20.060Z,90.40
2022-08-27T02:27:51.025Z,90.50
2022-08-27T02:30:22.540Z,90.50
2022-08-27T02:32:52.975Z,90.50
2022-08-27T02:35:22.733Z,90.50
2022-08-27T02:37:51.384Z,90.50
2022-08-27T02:40:22.639Z,90.50
2022-08-27T02:42:52.522Z,90.50
2022-08-27T02:45:21.057Z,90.50
2022-08-27T02:47:49.552Z,90.50
2022-08-27T02:50:18.167Z,90.50
2022-08-27T02:52:46.612Z,90.50
2022-08-27T02:55:17.198Z,90.50
2022-08-27T02:57:46.020Z,90.60
2022-08-27T03:00:18.846Z,90.60
2022-08-27T03:02:47.016Z,90.60
2022-08-27T03:05:15.879Z,90.70
2022-08-27T03:07:44.602Z,90.70
2022-08-27T03:10:15.193Z,90.70
2022-08-27T03:12:44.143Z,90.70
2022-08-27T03:15:16.255Z,90.60
2022-08-27T03:18:02.311Z,90.70
2022-08-27T03:20:30.772Z,90.70
2022-08-27T03:22:59.130Z,90.60
2022-08-27T03:25:28.628Z,90.70
2022-08-27T03:27:56.791Z,90.60
2022-08-27T03:30:26.621Z,90.60
2022-08-27T03:32:54.824Z,90.60
2022-08-27T03:35:23.373Z,90.60
2022-08-27T03:37:51.645Z,90.60
2022-08-27T03:40:20.801Z,90.70
2022-08-27T03:42:49.001Z,90.70
2022-08-27T03:45:17.346Z,90.70
2022-08-27T03:47:46.813Z,90.80
2022-08-27T03:50:15.208Z,90.80
2022-08-27T03:52:43.365Z,90.80
2022-08-27T03:55:11.959Z,90.80
2022-08-27T03:57:40.728Z,90.80
2022-08-27T04:00:11.711Z,90.80
2022-08-27T04:02:45.942Z,90.80
2022-08-27T04:05:15.287Z,90.80
2022-08-27T04:07:44.372Z,90.90
2022-08-27T04:10:14.442Z,90.90
2022-08-27T04:12:43.170Z,91.00
2022-08-27T04:15:13.371Z,90.90
2022-08-27T04:17:42.235Z,90.90
2022-08-27T04:20:34.550Z,90.80
2022-08-27T04:23:01.031Z,90.90
2022-08-27T04:25:29.515Z,90.90
2022-08-27T04:27:57.780Z,91.00
2022-08-27T04:30:25.979Z,91.00
2022-08-27T04:32:54.187Z,91.00
2022-08-27T04:35:23.677Z,90.90
2022-08-27T04:37:51.850Z,91.00
2022-08-27T04:40:20.303Z,91.00
2022-08-27T04:42:48.564Z,91.00
2022-08-27T04:45:17.381Z,91.20
2022-08-27T04:47:45.498Z,90.90
2022-08-27T04:50:13.743Z,91.00
2022-08-27T04:52:44.271Z,91.00
2022-08-27T04:55:12.789Z,91.00
2022-08-27T04:57:40.919Z,91.00
2022-08-27T05:00:10.915Z,91.00
2022-08-27T05:02:39.056Z,91.00
2022-08-27T05:05:08.226Z,91.00
2022-08-27T05:07:36.432Z,91.00
2022-08-27T05:10:06.397Z,91.10
2022-08-27T05:12:34.548Z,91.10
2022-08-27T05:15:02.759Z,91.10
2022-08-27T05:17:33.289Z,91.10
2022-08-27T05:20:01.618Z,91.10
2022-08-27T05:22:29.768Z,91.10
2022-08-27T05:24:57.884Z,91.10
2022-08-27T05:27:27.751Z,91.10
2022-08-27T05:29:55.872Z,91.10
2022-08-27T05:32:24.027Z,91.10
2022-08-27T05:34:52.161Z,91.10
2022-08-27T05:37:20.279Z,91.00
2022-08-27T05:39:48.413Z,91.00
2022-08-27T05:42:16.526Z,91.10
2022-08-27T05:44:46.258Z,91.20
2022-08-27T05:47:14.520Z,91.20
2022-08-27T05:49:42.704Z,91.10
2022-08-27T05:52:11.945Z,91.20
2022-08-27T05:54:40.740Z,91.20
2022-08-27T05:57:09.301Z,91.20
2022-08-27T05:59:55.723Z,91.20
2022-08-27T06:02:25.381Z,91.20
2022-08-27T06:04:53.782Z,91.20
2022-08-27T06:07:22.174Z,91.10
2022-08-27T06:09:50.329Z,91.20
2022-08-27T06:12:18.471Z,91.30
2022-08-27T06:14:46.601Z,91.30
2022-08-27T06:17:14.794Z,91.30
2022-08-27T06:19:45.757Z,91.30
2022-08-27T06:22:14.677Z,91.40
2022-08-27T06:24:44.153Z,91.40
2022-08-27T06:27:14.530Z,91.30
2022-08-27T06:29:43.036Z,91.40
2022-08-27T06:32:12.058Z,91.30
2022-08-27T06:34:40.766Z,91.30
2022-08-27T06:37:10.465Z,91.30
2022-08-27T06:39:39.414Z,91.40
2022-08-27T06:42:11.103Z,91.40
2022-08-27T06:44:40.950Z,91.40
2022-08-27T06:47:09.088Z,91.40
2022-08-27T06:49:40.251Z,91.50
2022-08-27T06:52:08.430Z,91.60
2022-08-27T06:54:40.227Z,91.60
2022-08-27T06:57:08.844Z,91.50
2022-08-27T06:59:37.040Z,91.50
2022-08-27T07:02:07.084Z,91.60
2022-08-27T07:04:35.481Z,91.60
2022-08-27T07:07:04.759Z,91.50
2022-08-27T07:09:34.788Z,91.50
2022-08-27T07:12:05.232Z,91.50
2022-08-27T07:14:37.957Z,91.50
2022-08-27T07:17:09.153Z,91.50
2022-08-27T07:19:40.865Z,91.40
2022-08-27T07:22:10.841Z,91.40
2022-08-27T07:24:39.125Z,91.50
2022-08-27T07:27:09.420Z,91.40
2022-08-27T07:29:37.561Z,91.40
2022-08-27T07:32:05.983Z,91.40
2022-08-27T07:34:34.117Z,91.30
2022-08-27T07:37:02.223Z,91.30
2022-08-27T07:39:30.372Z,91.30
2022-08-27T07:42:15.933Z,91.30
2022-08-27T07:44:45.583Z,91.20
2022-08-27T07:47:13.737Z,91.20
2022-08-27T07:49:41.960Z,91.20
2022-08-27T07:52:10.088Z,91.20
2022-08-27T07:54:38.250Z,91.10
2022-08-27T07:57:06.447Z,91.10
2022-08-27T07:59:34.892Z,91.00
2022-08-27T08:02:04.950Z,91.10
2022-08-27T08:04:33.116Z,90.90
2022-08-27T08:07:01.434Z,90.90
2022-08-27T08:09:30.683Z,90.90
2022-08-27T08:11:58.894Z,90.80
2022-08-27T08:14:27.183Z,90.90
2022-08-27T08:16:55.370Z,90.90
2022-08-27T08:19:25.036Z,91.00
2022-08-27T08:21:59.491Z,90.80
2022-08-27T08:24:29.663Z,90.80
2022-08-27T08:26:57.790Z,90.80
2022-08-27T08:29:25.927Z,90.80
2022-08-27T08:31:54.045Z,90.90
2022-08-27T08:34:22.252Z,90.90
2022-08-27T08:36:55.144Z,90.90
2022-08-27T08:39:24.630Z,91.10
2022-08-27T08:41:55.423Z,90.90
2022-08-27T08:44:31.093Z,90.80
2022-08-27T08:47:04.448Z,90.70
2022-08-27T08:49:44.708Z,90.70
2022-08-27T08:52:31.151Z,90.70
2022-08-27T08:55:10.023Z,90.70
2022-08-27T08:57:41.835Z,90.50
2022-08-27T09:00:14.332Z,90.50
2022-08-27T09:02:48.816Z,90.30
2022-08-27T09:05:17.566Z,90.30
2022-08-27T09:07:58.219Z,90.30
2022-08-27T09:10:40.061Z,90.10
2022-08-27T09:13:14.872Z,90.20
2022-08-27T09:15:43.218Z,90.10
2022-08-27T09:18:14.778Z,90.20
2022-08-27T09:20:48.373Z,90.20
2022-08-27T09:23:26.163Z,90.10
2022-08-27T09:25:54.334Z,90.00
2022-08-27T09:28:44.213Z,90.00
2022-08-27T09:31:14.925Z,89.80
2022-08-27T09:33:55.060Z,89.70
2022-08-27T09:36:25.629Z,89.70
2022-08-27T09:38:58.763Z,90.00
2022-08-27T09:41:31.702Z,90.00
2022-08-27T09:44:03.812Z,89.80
2022-08-27T09:46:31.965Z,89.80
2022-08-27T09:49:11.400Z,90.00
2022-08-27T09:51:43.114Z,90.10
2022-08-27T09:54:24.699Z,90.00
2022-08-27T09:56:53.330Z,89.80
2022-08-27T09:59:25.071Z,89.80
2022-08-27T10:01:55.762Z,89.50
2022-08-27T10:04:34.660Z,89.60
2022-08-27T10:07:29.101Z,89.40
2022-08-27T10:10:06.063Z,89.30
2022-08-27T10:12:40.696Z,89.40
2022-08-27T10:15:10.847Z,89.80
2022-08-27T10:17:48.728Z,89.60
2022-08-27T10:20:25.810Z,90.00
2022-08-27T10:23:10.181Z,89.50
2022-08-27T10:25:51.307Z,89.40
2022-08-27T10:28:31.841Z,89.60
2022-08-27T10:31:14.259Z,89.40
2022-08-27T10:33:54.034Z,89.50
2022-08-27T10:36:33.020Z,89.50
2022-08-27T10:39:07.593Z,89.40
2022-08-27T10:41:43.498Z,89.50
2022-08-27T10:44:37.656Z,90.00
2022-08-27T10:47:16.842Z,90.00
2022-08-27T10:49:52.536Z,89.80
2022-08-27T10:52:26.923Z,89.80
2022-08-27T10:55:00.755Z,89.80
2022-08-27T10:57:56.724Z,89.70
2022-08-27T11:00:37.926Z,89.60
2022-08-27T11:03:12.300Z,89.90
2022-08-27T11:05:46.049Z,90.00
2022-08-27T11:08:20.400Z,89.80
2022-08-27T11:10:50.536Z,89.80
2022-08-27T11:13:30.607Z,89.70
2022-08-27T11:16:00.515Z,89.80
2022-08-27T11:18:38.171Z,89.60
2022-08-27T11:21:13.817Z,89.60
2022-08-27T11:23:45.326Z,89.60
2022-08-27T11:26:14.661Z,89.40
2022-08-27T11:28:50.747Z,89.30
2022-08-27T11:31:29.551Z,89.40
2022-08-27T11:34:04.643Z,89.30
2022-08-27T11:36:54.419Z,89.20
2022-08-27T11:39:48.612Z,89.40
2022-08-27T11:42:26.740Z,89.30
2022-08-27T11:44:59.972Z,89.20
2022-08-27T11:47:29.650Z,89.00
2022-08-27T11:50:01.088Z,89.10
2022-08-27T11:52:33.955Z,89.10
2022-08-27T11:55:15.573Z,89.20
2022-08-27T11:57:45.069Z,89.10
2022-08-27T12:00:20.199Z,89.40
2022-08-27T12:02:59.042Z,89.30
2022-08-27T12:05:36.798Z,89.10
2022-08-27T12:08:16.242Z,89.40
2022-08-27T12:11:10.104Z,89.50
2022-08-27T12:13:43.615Z,89.50
2022-08-27T12:16:27.201Z,89.40
2022-08-27T12:19:06.878Z,89.20
2022-08-27T12:21:46.559Z,89.30
2022-08-27T12:24:35.264Z,89.50
2022-08-27T12:27:16.568Z,89.60
2022-08-27T12:29:50.903Z,89.60
2022-08-27T12:32:27.682Z,89.80
2022-08-27T12:35:03.201Z,89.80
2022-08-27T12:37:36.180Z,90.00
2022-08-27T12:40:13.090Z,90.20
2022-08-27T12:42:41.468Z,90.30
2022-08-27T12:45:18.834Z,90.20
2022-08-27T12:47:51.048Z,90.30
2022-08-27T12:50:24.979Z,90.30
2022-08-27T12:53:18.945Z,90.30
2022-08-27T12:56:02.357Z,90.30
2022-08-27T12:58:40.794Z,90.30
2022-08-27T13:01:24.447Z,90.20
2022-08-27T13:03:57.014Z,90.10
2022-08-27T13:06:30.481Z,90.00
2022-08-27T13:09:00.233Z,89.80
2022-08-27T13:11:31.246Z,90.00
2022-08-27T13:14:08.710Z,89.90
2022-08-27T13:16:40.140Z,90.00
2022-08-27T13:19:19.024Z,89.90
2022-08-27T13:21:50.266Z,89.80
2022-08-27T13:24:22.218Z,90.00
2022-08-27T13:26:54.746Z,89.80
2022-08-27T13:29:23.037Z,90.00
2022-08-27T13:31:51.902Z,90.20
2022-08-27T13:34:24.079Z,90.00
2022-08-27T13:36:58.042Z,89.80
2022-08-27T13:39:27.089Z,89.70
2022-08-27T13:41:56.308Z,89.80
2022-08-27T13:44:28.055Z,89.50
2022-08-27T13:47:03.250Z,89.70
2022-08-27T13:49:39.954Z,89.70
2022-08-27T13:52:17.248Z,89.90
2022-08-27T13:54:45.358Z,90.10
2022-08-27T13:57:25.571Z,89.90
2022-08-27T13:59:53.747Z,89.70
2022-08-27T14:02:28.597Z,89.20
2022-08-27T14:05:13.182Z,89.10
2022-08-27T14:07:47.483Z,88.90
2022-08-27T14:10:32.441Z,89.00
2022-08-27T14:13:02.879Z,89.20
2022-08-27T14:15:34.240Z,88.90
2022-08-27T14:18:03.869Z,88.80
2022-08-27T14:20:34.536Z,88.40
2022-08-27T14:23:02.679Z,88.90
2022-08-27T14:25:31.557Z,88.70
2022-08-27T14:27:59.793Z,88.40
2022-08-27T14:30:29.544Z,88.40
2022-08-27T14:33:00.332Z,88.50
2022-08-27T14:35:29.795Z,88.40
2022-08-27T14:38:02.234Z,88.10
2022-08-27T14:40:31.339Z,88.00
2022-08-27T14:43:01.230Z,87.90
2022-08-27T14:45:29.421Z,88.10
2022-08-27T14:47:59.096Z,88.50
2022-08-27T14:50:30.688Z,88.00
2022-08-27T14:53:00.182Z,88.00
2022-08-27T14:55:28.598Z,87.90
2022-08-27T14:57:56.700Z,87.60
2022-08-27T15:00:25.317Z,87.80
2022-08-27T15:02:55.897Z,87.80
2022-08-27T15:05:24.929Z,87.50
2022-08-27T15:07:54.706Z,87.30
2022-08-27T15:10:24.879Z,87.40
2022-08-27T15:12:54.866Z,87.50
2022-08-27T15:15:23.603Z,87.30
2022-08-27T15:17:51.812Z,87.50
2022-08-27T15:20:20.351Z,87.80
2022-08-27T15:22:51.901Z,88.10
2022-08-27T15:25:20.816Z,87.90
2022-08-27T15:27:50.360Z,87.70
2022-08-27T15:30:23.650Z,87.50
2022-08-27T15:32:51.922Z,87.20
2022-08-27T15:35:23.033Z,87.40
2022-08-27T15:37:51.163Z,87.80
2022-08-27T15:40:20.393Z,87.60
2022-08-27T15:42:54.449Z,87.50
2022-08-27T15:45:25.651Z,87.60
2022-08-27T15:47:56.105Z,87.80
2022-08-27T15:50:24.727Z,87.60
2022-08-27T15:52:58.236Z,87.30
2022-08-27T15:55:30.777Z,87.20
2022-08-27T15:58:01.322Z,87.20
2022-08-27T16:00:33.750Z,87.50
2022-08-27T16:03:02.734Z,87.10
2022-08-27T16:05:34.636Z,87.30
2022-08-27T16:08:02.851Z,87.20
2022-08-27T16:10:31.005Z,87.30
2022-08-27T16:13:00.537Z,87.10
2022-08-27T16:15:29.075Z,86.90
2022-08-27T16:18:01.300Z,87.10
2022-08-27T16:20:29.431Z,87.00
2022-08-27T16:22:57.531Z,87.10
2022-08-27T16:25:26.357Z,86.90
2022-08-27T16:27:54.662Z,86.90
2022-08-27T16:30:24.136Z,86.90
2022-08-27T16:32:53.160Z,86.80
2022-08-27T16:35:22.418Z,86.80
2022-08-27T16:37:50.480Z,86.50
2022-08-27T16:40:19.075Z,86.50
2022-08-27T16:42:50.260Z,86.40
2022-08-27T16:45:22.588Z,86.40
2022-08-27T16:48:09.769Z,86.50
2022-08-27T16:50:38.274Z,86.70
2022-08-27T16:53:08.976Z,86.60
2022-08-27T16:55:39.065Z,86.70
2022-08-27T16:58:10.410Z,87.00
2022-08-27T17:00:39.445Z,87.00
2022-08-27T17:03:09.622Z,87.20
2022-08-27T17:05:37.720Z,87.30
2022-08-27T17:08:11.597Z,87.30
2022-08-27T17:10:46.379Z,87.10
2022-08-27T17:13:16.177Z,86.60
2022-08-27T17:15:44.700Z,86.60
2022-08-27T17:18:14.443Z,86.30
2022-08-27T17:20:43.837Z,86.10
2022-08-27T17:23:20.078Z,86.00
2022-08-27T17:25:48.222Z,86.00
2022-08-27T17:28:16.747Z,85.80
2022-08-27T17:30:45.133Z,85.70
2022-08-27T17:33:21.266Z,85.60
2022-08-27T17:35:49.368Z,85.50
2022-08-27T17:38:18.062Z,85.40
2022-08-27T17:40:46.291Z,85.30
2022-08-27T17:43:21.399Z,85.30
2022-08-27T17:45:49.984Z,85.60
2022-08-27T17:48:24.791Z,85.40
2022-08-27T17:50:54.740Z,85.30
2022-08-27T17:53:23.041Z,85.20
2022-08-27T17:55:51.244Z,85.10
2022-08-27T17:58:20.139Z,85.50
2022-08-27T18:00:48.417Z,85.30
2022-08-27T18:03:21.099Z,85.40
2022-08-27T18:05:50.872Z,85.10
2022-08-27T18:08:20.678Z,85.10
2022-08-27T18:10:49.099Z,85.10
2022-08-27T18:13:18.608Z,85.00
2022-08-27T18:15:48.233Z,85.20
2022-08-27T18:18:16.429Z,85.10
2022-08-27T18:20:45.977Z,85.10
2022-08-27T18:23:14.611Z,85.00
2022-08-27T18:25:45.071Z,85.00
2022-08-27T18:28:14.723Z,85.00
2022-08-27T18:30:47.083Z,85.00
2022-08-27T18:33:15.581Z,84.90
2022-08-27T18:35:45.323Z,84.60
2022-08-27T18:38:13.775Z,84.60
2022-08-27T18:40:45.256Z,84.60
2022-08-27T18:43:14.499Z,84.50
2022-08-27T18:45:42.660Z,84.50
2022-08-27T18:48:14.567Z,84.50
2022-08-27T18:50:47.228Z,84.60
2022-08-27T18:53:17.220Z,84.60
2022-08-27T18:55:45.695Z,84.60
2022-08-27T18:58:13.971Z,85.20
2022-08-27T19:00:44.045Z,84.30
2022-08-27T19:03:14.864Z,84.40
2022-08-27T19:05:43.170Z,85.20
2022-08-27T19:08:12.896Z,84.60
2022-08-27T19:10:41.222Z,84.40
2022-08-27T19:13:09.594Z,84.40
2022-08-27T19:15:38.121Z,84.40
2022-08-27T19:18:06.395Z,84.40
2022-08-27T19:20:34.518Z,84.50
2022-08-27T19:23:02.650Z,84.30
2022-08-27T19:25:32.421Z,84.20
2022-08-27T19:28:00.612Z,84.30
2022-08-27T19:30:28.760Z,84.10
2022-08-27T19:32:59.789Z,84.00
2022-08-27T19:35:27.936Z,84.50
2022-08-27T19:37:56.172Z,84.30
2022-08-27T19:40:24.463Z,84.00
2022-08-27T19:42:54.210Z,84.00
2022-08-27T19:45:23.763Z,84.20
2022-08-27T19:47:53.291Z,84.10
2022-08-27T19:50:22.665Z,84.20
2022-08-27T19:52:51.401Z,84.20
2022-08-27T19:55:20.415Z,84.00
2022-08-27T19:57:49.397Z,84.10
2022-08-27T20:00:22.133Z,83.70
2022-08-27T20:02:50.797Z,83.70
2022-08-27T20:05:20.694Z,84.00
2022-08-27T20:07:50.632Z,83.90
2022-08-27T20:10:21.439Z,83.90
2022-08-27T20:12:50.496Z,83.80
2022-08-27T20:15:20.957Z,83.50
2022-08-27T20:17:52.838Z,83.30
2022-08-27T20:20:23.968Z,83.50
2022-08-27T20:22:53.154Z,83.40
2022-08-27T20:25:21.605Z,83.40
2022-08-27T20:27:50.198Z,83.40
2022-08-27T20:30:22.887Z,83.30
2022-08-27T20:32:51.382Z,83.40
2022-08-27T20:35:20.860Z,83.30
2022-08-27T20:37:48.999Z,83.30
2022-08-27T20:40:21.798Z,83.20
2022-08-27T20:42:49.991Z,83.20
2022-08-27T20:45:20.194Z,83.30
2022-08-27T20:47:49.934Z,83.20
2022-08-27T20:50:20.581Z,83.10
2022-08-27T20:52:49.409Z,83.10
2022-08-27T20:55:18.399Z,83.20
2022-08-27T20:58:05.834Z,83.10
2022-08-27T21:00:40.245Z,83.20
2022-08-27T21:03:08.657Z,83.30
2022-08-27T21:05:37.491Z,83.20
2022-08-27T21:08:07.188Z,83.10
2022-08-27T21:10:36.280Z,83.40
2022-08-27T21:13:07.313Z,83.40
2022-08-27T21:15:38.371Z,83.50
2022-08-27T21:18:06.896Z,83.50
2022-08-27T21:20:35.387Z,83.70
2022-08-27T21:23:03.547Z,83.80
2022-08-27T21:25:31.785Z,83.70
2022-08-27T21:28:00.805Z,83.70
2022-08-27T21:30:29.153Z,83.90
2022-08-27T21:32:58.641Z,83.90
2022-08-27T21:35:28.978Z,84.10
2022-08-27T21:37:58.725Z,84.20
2022-08-27T21:40:28.259Z,84.00
2022-08-27T21:42:57.520Z,84.10
2022-08-27T21:45:26.394Z,84.00
2022-08-27T21:47:55.604Z,83.90
2022-08-27T21:50:25.230Z,84.00
2022-08-27T21:52:54.033Z,84.10
2022-08-27T21:55:22.860Z,83.90
2022-08-27T21:57:50.948Z,84.00
2022-08-27T22:00:40.515Z,84.10
2022-08-27T22:03:11.322Z,84.00
2022-08-27T22:05:43.004Z,84.00
2022-08-27T22:08:12.053Z,84.00
2022-08-27T22:10:42.200Z,84.00
2022-08-27T22:13:10.668Z,84.00
2022-08-27T22:15:39.375Z,84.00
2022-08-27T22:18:07.581Z,84.00
2022-08-27T22:20:36.067Z,84.10
2022-08-27T22:23:08.478Z,84.10
2022-08-27T22:25:37.100Z,84.20
2022-08-27T22:28:05.886Z,84.20
2022-08-27T22:30:34.014Z,84.30
2022-08-27T22:33:02.283Z,84.30
2022-08-27T22:35:30.393Z,84.40
2022-08-27T22:37:58.855Z,84.50
2022-08-27T22:40:30.195Z,84.30
2022-08-27T22:42:59.398Z,84.30
2022-08-27T22:45:28.344Z,84.20
2022-08-27T22:47:56.932Z,84.50
2022-08-27T22:50:25.322Z,84.50
2022-08-27T22:52:53.981Z,84.30
2022-08-27T22:55:24.614Z,84.20
2022-08-27T22:57:55.818Z,84.10
2022-08-27T23:00:26.630Z,85.00
2022-08-27T23:02:55.610Z,84.30
2022-08-27T23:05:24.786Z,84.20
2022-08-27T23:07:54.730Z,84.30
2022-08-27T23:10:24.870Z,84.30
2022-08-27T23:12:55.044Z,84.40
2022-08-27T23:15:26.044Z,84.30
2022-08-27T23:17:54.901Z,84.40
2022-08-27T23:20:24.946Z,84.40
2022-08-27T23:22:54.785Z,84.40
2022-08-27T23:25:43.386Z,84.30
2022-08-27T23:28:15.214Z,84.30
2022-08-27T23:30:44.715Z,84.40
2022-08-27T23:33:13.776Z,84.20
2022-08-27T23:35:44.432Z,84.30
2022-08-27T23:38:13.057Z,84.40
2022-08-27T23:40:41.837Z,84.40
2022-08-27T23:43:10.275Z,84.40
2022-08-27T23:45:40.595Z,84.40
2022-08-27T23:48:09.040Z,84.40
2022-08-27T23:50:38.235Z,84.60
2022-08-27T23:53:07.347Z,84.50
2022-08-27T23:55:36.277Z,84.60
2022-08-27T23:58:04.694Z,84.50
